sensor_id;sensor_type;location;lat;lon;timestamp;P1;durP1;ratioP1;P2;durP2;ratioP2
50789;SDS011;37287;47.554;7.844;2023-04-03T00:00:46;5.57;;;5.10;;
50789;SDS011;37287;47.554;7.844;2023-04-03T00:03:14;8.23;;;6.70;;
50789;SDS011;37287;47.554;7.844;2023-04-03T00:05:50;7.63;;;7.00;;
50789;SDS011;37287;47.554;7.844;2023-04-03T00:08:17;8.38;;;6.38;;
50789;SDS011;37287;47.554;7.844;2023-04-03T00:10:44;7.93;;;7.22;;
50789;SDS011;37287;47.554;7.844;2023-04-03T00:13:11;9.15;;;8.07;;
50789;SDS011;37287;47.554;7.844;2023-04-03T00:15:40;8.60;;;7.80;;
50789;SDS011;37287;47.554;7.844;2023-04-03T00:18:07;8.15;;;7.35;;
50789;SDS011;37287;47.554;7.844;2023-04-03T00:20:35;9.43;;;8.40;;
50789;SDS011;37287;47.554;7.844;2023-04-03T00:23:03;7.97;;;7.05;;
50789;SDS011;37287;47.554;7.844;2023-04-03T00:25:29;7.72;;;7.03;;
50789;SDS011;37287;47.554;7.844;2023-04-03T00:28:01;8.50;;;7.13;;
50789;SDS011;37287;47.554;7.844;2023-04-03T00:30:28;7.45;;;6.70;;
50789;SDS011;37287;47.554;7.844;2023-04-03T00:32:54;7.90;;;7.10;;
50789;SDS011;37287;47.554;7.844;2023-04-03T00:35:22;8.40;;;7.55;;
50789;SDS011;37287;47.554;7.844;2023-04-03T00:37:53;8.05;;;7.25;;
50789;SDS011;37287;47.554;7.844;2023-04-03T00:40:22;11.80;;;8.45;;
50789;SDS011;37287;47.554;7.844;2023-04-03T00:42:56;10.07;;;7.78;;
50789;SDS011;37287;47.554;7.844;2023-04-03T00:45:27;9.43;;;8.10;;
50789;SDS011;37287;47.554;7.844;2023-04-03T00:47:57;10.38;;;7.70;;
50789;SDS011;37287;47.554;7.844;2023-04-03T00:50:28;8.77;;;6.38;;
50789;SDS011;37287;47.554;7.844;2023-04-03T00:52:56;6.57;;;5.97;;
50789;SDS011;37287;47.554;7.844;2023-04-03T00:55:25;7.10;;;6.38;;
50789;SDS011;37287;47.554;7.844;2023-04-03T00:57:52;6.80;;;6.10;;
50789;SDS011;37287;47.554;7.844;2023-04-03T01:00:21;7.90;;;7.10;;
50789;SDS011;37287;47.554;7.844;2023-04-03T01:02:54;6.50;;;5.90;;
50789;SDS011;37287;47.554;7.844;2023-04-03T01:05:20;7.35;;;6.65;;
50789;SDS011;37287;47.554;7.844;2023-04-03T01:07:48;4.07;;;3.67;;
50789;SDS011;37287;47.554;7.844;2023-04-03T01:10:17;4.93;;;4.50;;
50789;SDS011;37287;47.554;7.844;2023-04-03T01:12:47;3.85;;;3.40;;
50789;SDS011;37287;47.554;7.844;2023-04-03T01:15:21;2.40;;;2.20;;
50789;SDS011;37287;47.554;7.844;2023-04-03T01:17:54;2.00;;;1.90;;
50789;SDS011;37287;47.554;7.844;2023-04-03T01:25:32;2.30;;;2.10;;
50789;SDS011;37287;47.554;7.844;2023-04-03T01:33:31;1.90;;;1.80;;
50789;SDS011;37287;47.554;7.844;2023-04-03T01:35:58;1.90;;;1.70;;
50789;SDS011;37287;47.554;7.844;2023-04-03T01:38:25;3.35;;;1.75;;
50789;SDS011;37287;47.554;7.844;2023-04-03T01:40:51;1.92;;;1.75;;
50789;SDS011;37287;47.554;7.844;2023-04-03T01:43:18;2.13;;;2.03;;
50789;SDS011;37287;47.554;7.844;2023-04-03T01:45:45;3.60;;;1.77;;
50789;SDS011;37287;47.554;7.844;2023-04-03T01:48:19;1.70;;;1.60;;
50789;SDS011;37287;47.554;7.844;2023-04-03T01:50:46;6.72;;;1.73;;
50789;SDS011;37287;47.554;7.844;2023-04-03T01:53:13;1.67;;;1.58;;
50789;SDS011;37287;47.554;7.844;2023-04-03T01:55:46;1.42;;;1.33;;
50789;SDS011;37287;47.554;7.844;2023-04-03T01:58:13;1.42;;;1.33;;
50789;SDS011;37287;47.554;7.844;2023-04-03T02:00:39;1.73;;;1.50;;
50789;SDS011;37287;47.554;7.844;2023-04-03T02:03:06;1.67;;;1.50;;
50789;SDS011;37287;47.554;7.844;2023-04-03T02:05:33;1.35;;;1.25;;
50789;SDS011;37287;47.554;7.844;2023-04-03T02:08:00;1.60;;;1.50;;
50789;SDS011;37287;47.554;7.844;2023-04-03T02:10:28;1.80;;;1.70;;
50789;SDS011;37287;47.554;7.844;2023-04-03T02:12:54;1.98;;;1.75;;
50789;SDS011;37287;47.554;7.844;2023-04-03T02:15:23;1.70;;;1.60;;
50789;SDS011;37287;47.554;7.844;2023-04-03T02:17:51;1.42;;;1.33;;
50789;SDS011;37287;47.554;7.844;2023-04-03T02:20:18;1.90;;;1.80;;
50789;SDS011;37287;47.554;7.844;2023-04-03T02:22:45;1.60;;;1.45;;
50789;SDS011;37287;47.554;7.844;2023-04-03T02:25:12;1.60;;;1.50;;
50789;SDS011;37287;47.554;7.844;2023-04-03T02:27:39;1.85;;;1.58;;
50789;SDS011;37287;47.554;7.844;2023-04-03T02:30:05;1.63;;;1.52;;
50789;SDS011;37287;47.554;7.844;2023-04-03T02:32:34;1.40;;;1.30;;
50789;SDS011;37287;47.554;7.844;2023-04-03T02:35:03;1.50;;;1.40;;
50789;SDS011;37287;47.554;7.844;2023-04-03T02:37:30;1.60;;;1.50;;
50789;SDS011;37287;47.554;7.844;2023-04-03T02:39:56;1.50;;;1.40;;
50789;SDS011;37287;47.554;7.844;2023-04-03T02:42:23;1.25;;;1.15;;
50789;SDS011;37287;47.554;7.844;2023-04-03T02:44:49;2.47;;;1.52;;
50789;SDS011;37287;47.554;7.844;2023-04-03T02:47:29;1.70;;;1.60;;
50789;SDS011;37287;47.554;7.844;2023-04-03T02:49:56;1.42;;;1.33;;
50789;SDS011;37287;47.554;7.844;2023-04-03T02:52:22;1.20;;;1.20;;
50789;SDS011;37287;47.554;7.844;2023-04-03T02:54:49;1.48;;;1.38;;
50789;SDS011;37287;47.554;7.844;2023-04-03T02:57:16;1.10;;;1.10;;
50789;SDS011;37287;47.554;7.844;2023-04-03T02:59:45;1.60;;;1.50;;
50789;SDS011;37287;47.554;7.844;2023-04-03T03:02:12;1.38;;;1.27;;
50789;SDS011;37287;47.554;7.844;2023-04-03T03:04:39;1.20;;;1.20;;
50789;SDS011;37287;47.554;7.844;2023-04-03T03:07:05;2.35;;;1.42;;
50789;SDS011;37287;47.554;7.844;2023-04-03T03:09:32;1.50;;;1.40;;
50789;SDS011;37287;47.554;7.844;2023-04-03T03:12:02;2.05;;;1.40;;
50789;SDS011;37287;47.554;7.844;2023-04-03T03:14:29;1.50;;;1.40;;
50789;SDS011;37287;47.554;7.844;2023-04-03T03:16:56;1.50;;;1.40;;
50789;SDS011;37287;47.554;7.844;2023-04-03T03:19:22;1.50;;;1.40;;
50789;SDS011;37287;47.554;7.844;2023-04-03T03:21:49;2.15;;;1.65;;
50789;SDS011;37287;47.554;7.844;2023-04-03T03:24:29;1.08;;;1.08;;
50789;SDS011;37287;47.554;7.844;2023-04-03T03:26:56;1.42;;;1.33;;
50789;SDS011;37287;47.554;7.844;2023-04-03T03:29:22;2.15;;;1.65;;
50789;SDS011;37287;47.554;7.844;2023-04-03T03:31:49;1.63;;;1.52;;
50789;SDS011;37287;47.554;7.844;2023-04-03T03:34:15;3.13;;;1.27;;
50789;SDS011;37287;47.554;7.844;2023-04-03T03:36:42;1.17;;;1.17;;
50789;SDS011;37287;47.554;7.844;2023-04-03T03:39:10;1.25;;;1.20;;
50789;SDS011;37287;47.554;7.844;2023-04-03T03:41:37;1.48;;;1.38;;
50789;SDS011;37287;47.554;7.844;2023-04-03T03:44:04;1.75;;;1.65;;
50789;SDS011;37287;47.554;7.844;2023-04-03T03:46:30;1.52;;;1.38;;
50789;SDS011;37287;47.554;7.844;2023-04-03T03:48:57;1.60;;;1.50;;
50789;SDS011;37287;47.554;7.844;2023-04-03T03:51:24;1.48;;;1.38;;
50789;SDS011;37287;47.554;7.844;2023-04-03T03:53:52;1.45;;;1.35;;
50789;SDS011;37287;47.554;7.844;2023-04-03T03:56:19;1.50;;;1.40;;
50789;SDS011;37287;47.554;7.844;2023-04-03T03:58:46;1.60;;;1.50;;
50789;SDS011;37287;47.554;7.844;2023-04-03T04:01:15;1.67;;;1.58;;
50789;SDS011;37287;47.554;7.844;2023-04-03T04:03:43;1.95;;;1.50;;
50789;SDS011;37287;47.554;7.844;2023-04-03T04:06:10;2.25;;;1.40;;
50789;SDS011;37287;47.554;7.844;2023-04-03T04:08:43;1.70;;;1.60;;
50789;SDS011;37287;47.554;7.844;2023-04-03T04:11:09;2.28;;;1.40;;
50789;SDS011;37287;47.554;7.844;2023-04-03T04:13:36;3.33;;;1.70;;
50789;SDS011;37287;47.554;7.844;2023-04-03T04:16:03;1.58;;;1.48;;
50789;SDS011;37287;47.554;7.844;2023-04-03T04:18:29;2.17;;;1.98;;
50789;SDS011;37287;47.554;7.844;2023-04-03T04:20:58;2.15;;;1.98;;
50789;SDS011;37287;47.554;7.844;2023-04-03T04:23:24;1.88;;;1.77;;
50789;SDS011;37287;47.554;7.844;2023-04-03T04:25:51;3.30;;;2.25;;
50789;SDS011;37287;47.554;7.844;2023-04-03T04:28:18;4.68;;;2.20;;
50789;SDS011;37287;47.554;7.844;2023-04-03T04:30:46;2.60;;;2.40;;
50789;SDS011;37287;47.554;7.844;2023-04-03T04:33:13;2.95;;;2.30;;
50789;SDS011;37287;47.554;7.844;2023-04-03T04:35:41;2.75;;;2.55;;
50789;SDS011;37287;47.554;7.844;2023-04-03T04:38:11;2.70;;;2.50;;
50789;SDS011;37287;47.554;7.844;2023-04-03T04:40:38;3.55;;;2.90;;
50789;SDS011;37287;47.554;7.844;2023-04-03T04:43:04;2.90;;;2.63;;
50789;SDS011;37287;47.554;7.844;2023-04-03T04:45:31;2.90;;;2.70;;
50789;SDS011;37287;47.554;7.844;2023-04-03T04:47:58;3.47;;;2.70;;
50789;SDS011;37287;47.554;7.844;2023-04-03T04:50:24;2.70;;;2.47;;
50789;SDS011;37287;47.554;7.844;2023-04-03T04:52:51;3.63;;;3.17;;
50789;SDS011;37287;47.554;7.844;2023-04-03T04:55:19;2.47;;;2.28;;
50789;SDS011;37287;47.554;7.844;2023-04-03T04:57:46;2.28;;;2.10;;
50789;SDS011;37287;47.554;7.844;2023-04-03T05:00:13;3.65;;;2.78;;
50789;SDS011;37287;47.554;7.844;2023-04-03T05:02:41;3.13;;;2.60;;
50789;SDS011;37287;47.554;7.844;2023-04-03T05:05:07;2.40;;;2.20;;
50789;SDS011;37287;47.554;7.844;2023-04-03T05:07:34;2.53;;;2.30;;
50789;SDS011;37287;47.554;7.844;2023-04-03T05:10:03;2.80;;;2.60;;
50789;SDS011;37287;47.554;7.844;2023-04-03T05:12:30;3.05;;;2.75;;
50789;SDS011;37287;47.554;7.844;2023-04-03T05:14:58;4.18;;;3.00;;
50789;SDS011;37287;47.554;7.844;2023-04-03T05:17:31;4.15;;;3.75;;
50789;SDS011;37287;47.554;7.844;2023-04-03T05:19:57;3.80;;;3.22;;
50789;SDS011;37287;47.554;7.844;2023-04-03T05:22:24;4.50;;;3.55;;
50789;SDS011;37287;47.554;7.844;2023-04-03T05:24:52;3.80;;;3.50;;
50789;SDS011;37287;47.554;7.844;2023-04-03T05:27:19;3.70;;;3.40;;
50789;SDS011;37287;47.554;7.844;2023-04-03T05:29:46;4.53;;;3.20;;
50789;SDS011;37287;47.554;7.844;2023-04-03T05:32:14;3.80;;;3.47;;
50789;SDS011;37287;47.554;7.844;2023-04-03T05:34:41;3.30;;;3.00;;
50789;SDS011;37287;47.554;7.844;2023-04-03T05:37:07;4.80;;;3.03;;
50789;SDS011;37287;47.554;7.844;2023-04-03T05:39:34;3.17;;;2.88;;
50789;SDS011;37287;47.554;7.844;2023-04-03T05:42:01;3.13;;;2.92;;
50789;SDS011;37287;47.554;7.844;2023-04-03T05:44:27;3.17;;;2.90;;
50789;SDS011;37287;47.554;7.844;2023-04-03T05:46:56;4.35;;;3.95;;
50789;SDS011;37287;47.554;7.844;2023-04-03T05:49:26;4.28;;;3.88;;
50789;SDS011;37287;47.554;7.844;2023-04-03T05:51:53;4.97;;;4.40;;
50789;SDS011;37287;47.554;7.844;2023-04-03T05:54:27;4.50;;;3.83;;
50789;SDS011;37287;47.554;7.844;2023-04-03T05:56:55;5.72;;;3.95;;
50789;SDS011;37287;47.554;7.844;2023-04-03T05:59:22;4.93;;;4.35;;
50789;SDS011;37287;47.554;7.844;2023-04-03T06:01:48;4.80;;;4.20;;
50789;SDS011;37287;47.554;7.844;2023-04-03T06:04:15;5.07;;;4.53;;
50789;SDS011;37287;47.554;7.844;2023-04-03T06:06:45;4.70;;;4.30;;
50789;SDS011;37287;47.554;7.844;2023-04-03T06:09:21;5.72;;;5.00;;
50789;SDS011;37287;47.554;7.844;2023-04-03T06:11:52;5.60;;;5.03;;
50789;SDS011;37287;47.554;7.844;2023-04-03T06:14:19;6.15;;;5.45;;
50789;SDS011;37287;47.554;7.844;2023-04-03T06:16:45;7.82;;;6.10;;
50789;SDS011;37287;47.554;7.844;2023-04-03T06:19:21;5.88;;;5.00;;
50789;SDS011;37287;47.554;7.844;2023-04-03T06:21:48;7.00;;;6.30;;
50789;SDS011;37287;47.554;7.844;2023-04-03T06:24:15;6.45;;;5.68;;
50789;SDS011;37287;47.554;7.844;2023-04-03T06:26:43;7.47;;;6.00;;
50789;SDS011;37287;47.554;7.844;2023-04-03T06:29:12;5.97;;;5.38;;
50789;SDS011;37287;47.554;7.844;2023-04-03T06:31:38;6.43;;;5.68;;
50789;SDS011;37287;47.554;7.844;2023-04-03T06:34:06;6.63;;;5.63;;
50789;SDS011;37287;47.554;7.844;2023-04-03T06:36:35;7.13;;;6.40;;
50789;SDS011;37287;47.554;7.844;2023-04-03T06:39:01;7.65;;;6.32;;
50789;SDS011;37287;47.554;7.844;2023-04-03T06:41:33;7.70;;;5.90;;
50789;SDS011;37287;47.554;7.844;2023-04-03T06:44:03;11.77;;;6.43;;
50789;SDS011;37287;47.554;7.844;2023-04-03T06:46:31;8.02;;;6.40;;
50789;SDS011;37287;47.554;7.844;2023-04-03T06:48:59;7.75;;;5.90;;
50789;SDS011;37287;47.554;7.844;2023-04-03T06:51:26;9.55;;;6.07;;
50789;SDS011;37287;47.554;7.844;2023-04-03T06:53:56;7.47;;;6.50;;
50789;SDS011;37287;47.554;7.844;2023-04-03T06:56:26;6.90;;;6.15;;
50789;SDS011;37287;47.554;7.844;2023-04-03T06:58:54;7.45;;;5.63;;
50789;SDS011;37287;47.554;7.844;2023-04-03T07:01:24;6.22;;;5.20;;
50789;SDS011;37287;47.554;7.844;2023-04-03T07:03:54;8.00;;;5.40;;
50789;SDS011;37287;47.554;7.844;2023-04-03T07:06:21;5.60;;;5.00;;
50789;SDS011;37287;47.554;7.844;2023-04-03T07:08:48;5.15;;;4.60;;
50789;SDS011;37287;47.554;7.844;2023-04-03T07:11:17;5.70;;;4.70;;
50789;SDS011;37287;47.554;7.844;2023-04-03T07:13:44;6.93;;;4.80;;
50789;SDS011;37287;47.554;7.844;2023-04-03T07:16:11;6.30;;;5.00;;
50789;SDS011;37287;47.554;7.844;2023-04-03T07:18:38;5.15;;;4.20;;
50789;SDS011;37287;47.554;7.844;2023-04-03T07:21:05;4.45;;;4.05;;
50789;SDS011;37287;47.554;7.844;2023-04-03T07:23:32;4.50;;;3.70;;
50789;SDS011;37287;47.554;7.844;2023-04-03T07:25:59;4.22;;;3.83;;
50789;SDS011;37287;47.554;7.844;2023-04-03T07:28:26;4.20;;;3.80;;
50789;SDS011;37287;47.554;7.844;2023-04-03T07:30:54;4.82;;;3.33;;
50789;SDS011;37287;47.554;7.844;2023-04-03T07:33:27;3.83;;;3.53;;
50789;SDS011;37287;47.554;7.844;2023-04-03T07:35:57;3.95;;;3.40;;
50789;SDS011;37287;47.554;7.844;2023-04-03T07:38:24;3.70;;;3.40;;
50789;SDS011;37287;47.554;7.844;2023-04-03T07:40:53;4.28;;;3.83;;
50789;SDS011;37287;47.554;7.844;2023-04-03T07:43:20;4.10;;;3.50;;
50789;SDS011;37287;47.554;7.844;2023-04-03T07:45:51;5.40;;;3.67;;
50789;SDS011;37287;47.554;7.844;2023-04-03T07:48:18;3.95;;;3.55;;
50789;SDS011;37287;47.554;7.844;2023-04-03T07:50:46;4.13;;;3.70;;
50789;SDS011;37287;47.554;7.844;2023-04-03T07:53:13;5.13;;;3.55;;
50789;SDS011;37287;47.554;7.844;2023-04-03T07:55:42;4.03;;;3.63;;
50789;SDS011;37287;47.554;7.844;2023-04-03T07:58:10;4.88;;;4.00;;
50789;SDS011;37287;47.554;7.844;2023-04-03T08:00:38;3.72;;;3.38;;
50789;SDS011;37287;47.554;7.844;2023-04-03T08:03:06;4.35;;;3.60;;
50789;SDS011;37287;47.554;7.844;2023-04-03T08:05:40;5.38;;;3.78;;
50789;SDS011;37287;47.554;7.844;2023-04-03T08:08:10;4.10;;;3.70;;
50789;SDS011;37287;47.554;7.844;2023-04-03T08:10:39;4.10;;;3.70;;
50789;SDS011;37287;47.554;7.844;2023-04-03T08:13:06;6.75;;;4.20;;
50789;SDS011;37287;47.554;7.844;2023-04-03T08:15:35;4.30;;;3.85;;
50789;SDS011;37287;47.554;7.844;2023-04-03T08:18:03;6.18;;;3.90;;
50789;SDS011;37287;47.554;7.844;2023-04-03T08:20:30;5.10;;;4.00;;
50789;SDS011;37287;47.554;7.844;2023-04-03T08:23:10;5.50;;;4.22;;
50789;SDS011;37287;47.554;7.844;2023-04-03T08:25:37;4.32;;;3.85;;
50789;SDS011;37287;47.554;7.844;2023-04-03T08:28:08;4.13;;;3.72;;
50789;SDS011;37287;47.554;7.844;2023-04-03T08:30:42;5.03;;;3.78;;
50789;SDS011;37287;47.554;7.844;2023-04-03T08:33:10;5.05;;;3.90;;
50789;SDS011;37287;47.554;7.844;2023-04-03T08:35:40;4.63;;;3.45;;
50789;SDS011;37287;47.554;7.844;2023-04-03T08:38:11;3.47;;;3.17;;
50789;SDS011;37287;47.554;7.844;2023-04-03T08:40:37;4.78;;;3.30;;
50789;SDS011;37287;47.554;7.844;2023-04-03T08:43:27;3.88;;;3.47;;
50789;SDS011;37287;47.554;7.844;2023-04-03T08:46:03;3.65;;;3.35;;
50789;SDS011;37287;47.554;7.844;2023-04-03T08:48:38;4.20;;;3.75;;
50789;SDS011;37287;47.554;7.844;2023-04-03T08:51:15;4.38;;;3.97;;
50789;SDS011;37287;47.554;7.844;2023-04-03T08:54:06;7.88;;;3.33;;
50789;SDS011;37287;47.554;7.844;2023-04-03T08:56:49;5.38;;;4.10;;
50789;SDS011;37287;47.554;7.844;2023-04-03T08:59:18;6.68;;;3.60;;
50789;SDS011;37287;47.554;7.844;2023-04-03T09:01:54;5.15;;;4.22;;
50789;SDS011;37287;47.554;7.844;2023-04-03T09:04:24;5.47;;;3.40;;
50789;SDS011;37287;47.554;7.844;2023-04-03T09:06:56;4.13;;;3.20;;
50789;SDS011;37287;47.554;7.844;2023-04-03T09:09:33;3.72;;;3.15;;
50789;SDS011;37287;47.554;7.844;2023-04-03T09:12:14;3.33;;;3.03;;
50789;SDS011;37287;47.554;7.844;2023-04-03T09:20:16;3.95;;;2.88;;
50789;SDS011;37287;47.554;7.844;2023-04-03T09:23:12;3.13;;;2.72;;
50789;SDS011;37287;47.554;7.844;2023-04-03T09:25:40;3.42;;;2.80;;
50789;SDS011;37287;47.554;7.844;2023-04-03T09:28:07;2.72;;;2.10;;
50789;SDS011;37287;47.554;7.844;2023-04-03T09:30:36;2.30;;;2.10;;
50789;SDS011;37287;47.554;7.844;2023-04-03T09:33:09;2.92;;;2.17;;
50789;SDS011;37287;47.554;7.844;2023-04-03T09:35:38;3.05;;;2.03;;
50789;SDS011;37287;47.554;7.844;2023-04-03T09:38:15;2.70;;;1.95;;
50789;SDS011;37287;47.554;7.844;2023-04-03T09:40:49;3.05;;;2.20;;
50789;SDS011;37287;47.554;7.844;2023-04-03T09:43:28;2.55;;;1.90;;
50789;SDS011;37287;47.554;7.844;2023-04-03T09:46:15;2.00;;;1.80;;
50789;SDS011;37287;47.554;7.844;2023-04-03T09:48:58;1.88;;;1.77;;
50789;SDS011;37287;47.554;7.844;2023-04-03T09:51:34;2.00;;;1.80;;
50789;SDS011;37287;47.554;7.844;2023-04-03T09:54:04;2.00;;;1.80;;
50789;SDS011;37287;47.554;7.844;2023-04-03T09:57:01;2.30;;;2.10;;
50789;SDS011;37287;47.554;7.844;2023-04-03T09:59:32;1.80;;;1.70;;
50789;SDS011;37287;47.554;7.844;2023-04-03T10:02:02;2.58;;;2.03;;
50789;SDS011;37287;47.554;7.844;2023-04-03T10:04:43;1.98;;;1.77;;
50789;SDS011;37287;47.554;7.844;2023-04-03T10:07:34;2.00;;;1.70;;
50789;SDS011;37287;47.554;7.844;2023-04-03T10:13:03;1.63;;;1.52;;
50789;SDS011;37287;47.554;7.844;2023-04-03T10:15:36;1.83;;;1.58;;
50789;SDS011;37287;47.554;7.844;2023-04-03T10:18:24;1.85;;;1.50;;
50789;SDS011;37287;47.554;7.844;2023-04-03T10:20:54;1.52;;;1.42;;
50789;SDS011;37287;47.554;7.844;2023-04-03T10:26:17;2.33;;;1.35;;
50789;SDS011;37287;47.554;7.844;2023-04-03T10:29:14;1.63;;;1.42;;
50789;SDS011;37287;47.554;7.844;2023-04-03T10:31:46;1.33;;;1.20;;
50789;SDS011;37287;47.554;7.844;2023-04-03T10:40:20;1.40;;;1.30;;
50789;SDS011;37287;47.554;7.844;2023-04-03T10:54:04;1.33;;;1.23;;
50789;SDS011;37287;47.554;7.844;2023-04-03T10:57:04;1.15;;;1.05;;
50789;SDS011;37287;47.554;7.844;2023-04-03T10:59:45;1.50;;;1.38;;
50789;SDS011;37287;47.554;7.844;2023-04-03T11:02:29;1.50;;;1.40;;
50789;SDS011;37287;47.554;7.844;2023-04-03T11:06:00;1.63;;;1.52;;
50789;SDS011;37287;47.554;7.844;2023-04-03T11:11:08;1.60;;;1.50;;
50789;SDS011;37287;47.554;7.844;2023-04-03T11:13:40;1.55;;;1.45;;
50789;SDS011;37287;47.554;7.844;2023-04-03T11:16:14;1.48;;;1.38;;
50789;SDS011;37287;47.554;7.844;2023-04-03T11:18:49;2.30;;;1.95;;
50789;SDS011;37287;47.554;7.844;2023-04-03T11:21:57;1.95;;;1.85;;
50789;SDS011;37287;47.554;7.844;2023-04-03T11:24:27;1.40;;;1.30;;
50789;SDS011;37287;47.554;7.844;2023-04-03T11:26:58;3.08;;;1.20;;
50789;SDS011;37287;47.554;7.844;2023-04-03T11:29:34;1.67;;;1.20;;
50789;SDS011;37287;47.554;7.844;2023-04-03T11:34:52;1.88;;;1.35;;
50789;SDS011;37287;47.554;7.844;2023-04-03T11:40:05;1.80;;;1.50;;
50789;SDS011;37287;47.554;7.844;2023-04-03T11:42:37;1.70;;;1.60;;
50789;SDS011;37287;47.554;7.844;2023-04-03T11:47:51;1.63;;;1.52;;
50789;SDS011;37287;47.554;7.844;2023-04-03T11:55:59;1.30;;;1.20;;
50789;SDS011;37287;47.554;7.844;2023-04-03T11:58:33;1.30;;;1.20;;
50789;SDS011;37287;47.554;7.844;2023-04-03T12:01:08;1.40;;;1.30;;
50789;SDS011;37287;47.554;7.844;2023-04-03T12:03:56;1.33;;;1.23;;
50789;SDS011;37287;47.554;7.844;2023-04-03T12:09:54;1.88;;;1.50;;
50789;SDS011;37287;47.554;7.844;2023-04-03T12:12:54;2.03;;;1.50;;
50789;SDS011;37287;47.554;7.844;2023-04-03T12:17:47;1.70;;;1.60;;
50789;SDS011;37287;47.554;7.844;2023-04-03T12:23:28;1.80;;;1.45;;
50789;SDS011;37287;47.554;7.844;2023-04-03T12:26:04;1.48;;;1.38;;
50789;SDS011;37287;47.554;7.844;2023-04-03T12:28:45;1.60;;;1.50;;
50789;SDS011;37287;47.554;7.844;2023-04-03T12:31:14;2.13;;;1.42;;
50789;SDS011;37287;47.554;7.844;2023-04-03T12:34:01;1.63;;;1.25;;
50789;SDS011;37287;47.554;7.844;2023-04-03T12:36:45;1.20;;;1.10;;
50789;SDS011;37287;47.554;7.844;2023-04-03T12:45:20;1.20;;;1.20;;
50789;SDS011;37287;47.554;7.844;2023-04-03T12:47:51;1.85;;;1.40;;
50789;SDS011;37287;47.554;7.844;2023-04-03T12:50:24;1.67;;;1.58;;
50789;SDS011;37287;47.554;7.844;2023-04-03T12:55:25;4.82;;;1.30;;
50789;SDS011;37287;47.554;7.844;2023-04-03T12:57:52;1.45;;;1.35;;
50789;SDS011;37287;47.554;7.844;2023-04-03T13:02:49;1.50;;;1.40;;
50789;SDS011;37287;47.554;7.844;2023-04-03T13:05:17;1.17;;;1.08;;
50789;SDS011;37287;47.554;7.844;2023-04-03T13:07:54;1.33;;;1.23;;
50789;SDS011;37287;47.554;7.844;2023-04-03T13:10:28;1.10;;;1.10;;
50789;SDS011;37287;47.554;7.844;2023-04-03T13:12:56;1.50;;;1.40;;
50789;SDS011;37287;47.554;7.844;2023-04-03T13:15:28;1.50;;;1.38;;
50789;SDS011;37287;47.554;7.844;2023-04-03T13:17:58;3.60;;;1.40;;
50789;SDS011;37287;47.554;7.844;2023-04-03T13:20:27;1.40;;;1.27;;
50789;SDS011;37287;47.554;7.844;2023-04-03T13:25:31;1.42;;;1.33;;
50789;SDS011;37287;47.554;7.844;2023-04-03T13:28:01;1.50;;;1.40;;
50789;SDS011;37287;47.554;7.844;2023-04-03T13:30:39;1.75;;;1.65;;
50789;SDS011;37287;47.554;7.844;2023-04-03T13:33:24;1.40;;;1.30;;
50789;SDS011;37287;47.554;7.844;2023-04-03T13:38:57;2.55;;;1.85;;
50789;SDS011;37287;47.554;7.844;2023-04-03T13:41:34;2.75;;;1.88;;
50789;SDS011;37287;47.554;7.844;2023-04-03T13:44:23;1.55;;;1.40;;
50789;SDS011;37287;47.554;7.844;2023-04-03T13:52:51;1.98;;;1.50;;
50789;SDS011;37287;47.554;7.844;2023-04-03T13:55:24;2.13;;;1.65;;
50789;SDS011;37287;47.554;7.844;2023-04-03T13:57:57;2.05;;;1.80;;
50789;SDS011;37287;47.554;7.844;2023-04-03T14:00:28;1.42;;;1.33;;
50789;SDS011;37287;47.554;7.844;2023-04-03T14:03:25;1.63;;;1.52;;
50789;SDS011;37287;47.554;7.844;2023-04-03T14:06:16;1.52;;;1.42;;
50789;SDS011;37287;47.554;7.844;2023-04-03T14:08:44;3.25;;;1.88;;
50789;SDS011;37287;47.554;7.844;2023-04-03T14:11:16;1.80;;;1.70;;
50789;SDS011;37287;47.554;7.844;2023-04-03T14:13:48;1.48;;;1.38;;
50789;SDS011;37287;47.554;7.844;2023-04-03T14:16:20;1.52;;;1.42;;
50789;SDS011;37287;47.554;7.844;2023-04-03T14:18:50;4.32;;;1.70;;
50789;SDS011;37287;47.554;7.844;2023-04-03T14:21:23;1.83;;;1.58;;
50789;SDS011;37287;47.554;7.844;2023-04-03T14:23:50;2.03;;;1.75;;
50789;SDS011;37287;47.554;7.844;2023-04-03T14:26:18;1.70;;;1.60;;
50789;SDS011;37287;47.554;7.844;2023-04-03T14:28:48;1.58;;;1.40;;
50789;SDS011;37287;47.554;7.844;2023-04-03T14:31:16;2.35;;;1.55;;
50789;SDS011;37287;47.554;7.844;2023-04-03T14:33:47;1.60;;;1.30;;
50789;SDS011;37287;47.554;7.844;2023-04-03T14:36:14;1.70;;;1.40;;
50789;SDS011;37287;47.554;7.844;2023-04-03T14:38:43;1.48;;;1.38;;
50789;SDS011;37287;47.554;7.844;2023-04-03T14:41:15;1.58;;;1.48;;
50789;SDS011;37287;47.554;7.844;2023-04-03T14:43:47;1.70;;;1.60;;
50789;SDS011;37287;47.554;7.844;2023-04-03T14:46:15;3.42;;;2.10;;
50789;SDS011;37287;47.554;7.844;2023-04-03T14:48:45;1.90;;;1.50;;
50789;SDS011;37287;47.554;7.844;2023-04-03T14:51:13;2.13;;;1.67;;
50789;SDS011;37287;47.554;7.844;2023-04-03T14:53:41;1.85;;;1.65;;
50789;SDS011;37287;47.554;7.844;2023-04-03T14:56:17;1.60;;;1.50;;
50789;SDS011;37287;47.554;7.844;2023-04-03T14:58:51;1.50;;;1.40;;
50789;SDS011;37287;47.554;7.844;2023-04-03T15:01:22;1.60;;;1.50;;
50789;SDS011;37287;47.554;7.844;2023-04-03T15:03:49;1.67;;;1.52;;
50789;SDS011;37287;47.554;7.844;2023-04-03T15:06:17;4.38;;;1.60;;
50789;SDS011;37287;47.554;7.844;2023-04-03T15:08:45;1.85;;;1.70;;
50789;SDS011;37287;47.554;7.844;2023-04-03T15:11:13;2.20;;;1.73;;
50789;SDS011;37287;47.554;7.844;2023-04-03T15:13:43;1.70;;;1.60;;
50789;SDS011;37287;47.554;7.844;2023-04-03T15:16:14;1.85;;;1.60;;
50789;SDS011;37287;47.554;7.844;2023-04-03T15:18:44;1.45;;;1.33;;
50789;SDS011;37287;47.554;7.844;2023-04-03T15:21:13;1.30;;;1.20;;
50789;SDS011;37287;47.554;7.844;2023-04-03T15:23:40;1.30;;;1.20;;
50789;SDS011;37287;47.554;7.844;2023-04-03T15:26:08;1.63;;;1.20;;
50789;SDS011;37287;47.554;7.844;2023-04-03T15:28:38;1.50;;;1.40;;
50789;SDS011;37287;47.554;7.844;2023-04-03T15:31:06;1.17;;;1.13;;
50789;SDS011;37287;47.554;7.844;2023-04-03T15:33:34;1.13;;;1.13;;
50789;SDS011;37287;47.554;7.844;2023-04-03T15:36:04;1.52;;;1.33;;
50789;SDS011;37287;47.554;7.844;2023-04-03T15:38:42;1.15;;;1.05;;
50789;SDS011;37287;47.554;7.844;2023-04-03T15:41:13;1.40;;;1.30;;
50789;SDS011;37287;47.554;7.844;2023-04-03T15:43:39;1.58;;;1.48;;
50789;SDS011;37287;47.554;7.844;2023-04-03T15:46:09;1.70;;;1.60;;
50789;SDS011;37287;47.554;7.844;2023-04-03T15:48:37;1.60;;;1.50;;
50789;SDS011;37287;47.554;7.844;2023-04-03T15:51:03;1.70;;;1.60;;
50789;SDS011;37287;47.554;7.844;2023-04-03T15:53:32;1.60;;;1.50;;
50789;SDS011;37287;47.554;7.844;2023-04-03T15:56:01;1.67;;;1.55;;
50789;SDS011;37287;47.554;7.844;2023-04-03T15:58:28;1.50;;;1.30;;
50789;SDS011;37287;47.554;7.844;2023-04-03T16:00:54;1.45;;;1.30;;
50789;SDS011;37287;47.554;7.844;2023-04-03T16:03:22;2.65;;;1.45;;
50789;SDS011;37287;47.554;7.844;2023-04-03T16:05:53;2.17;;;1.40;;
50789;SDS011;37287;47.554;7.844;2023-04-03T16:08:20;1.90;;;1.30;;
50789;SDS011;37287;47.554;7.844;2023-04-03T16:10:48;1.50;;;1.40;;
50789;SDS011;37287;47.554;7.844;2023-04-03T16:13:15;1.42;;;1.15;;
50789;SDS011;37287;47.554;7.844;2023-04-03T16:15:41;1.33;;;1.10;;
50789;SDS011;37287;47.554;7.844;2023-04-03T16:18:09;1.25;;;1.15;;
50789;SDS011;37287;47.554;7.844;2023-04-03T16:20:36;1.30;;;1.20;;
50789;SDS011;37287;47.554;7.844;2023-04-03T16:23:03;1.13;;;1.00;;
50789;SDS011;37287;47.554;7.844;2023-04-03T16:25:32;1.75;;;1.20;;
50789;SDS011;37287;47.554;7.844;2023-04-03T16:27:59;1.35;;;1.20;;
50789;SDS011;37287;47.554;7.844;2023-04-03T16:30:26;1.60;;;1.20;;
50789;SDS011;37287;47.554;7.844;2023-04-03T16:32:52;1.80;;;1.35;;
50789;SDS011;37287;47.554;7.844;2023-04-03T16:35:19;1.63;;;1.05;;